VTUU/UBP METAR and TAF weather

Enter ICAO airport designator
Station Type Date Time Source
VTUU METAR 2019/10/22 17:00 UTC NOAA

VTUU 221700Z 00000KT 8000 NSC 26/24 Q1009 NOSIG


Station Type Date Time Source
VTUU Decoded METAR 2019/10/22 17:00 UTC NOAA

Ubon Ratchathani, Thailand (VTUU) 15-15N 104-52E 127M
Oct 22, 2019 - 01:00 PM EDT / 2019.10.22 1700 UTC
Wind: Calm:0
Visibility: 4 mile(s):0
Temperature: 78 F (26 C)
Dew Point: 75 F (24 C)
Relative Humidity: 88%
Pressure (altimeter): 29.80 in. Hg (1009 hPa)
ob: VTUU 221700Z 00000KT 8000 NSC 26/24 Q1009 NOSIG
cycle: 17

Station Type Date Time Source
VTUU TAF 2019/10/22 12:39 UTC NOAA

TAF VTUU 221100Z 2212/2312 21004KT 9000 NSC
BECMG 2221/2223 5000 BR
BECMG 2300/2302 9999 NSW

Example: see airport list